Time;durP1;ratioP1;P1;durP2;ratioP2;P2;SDS_P1;SDS_P2;PMS_P1;PMS_P2;Temp;Humidity;BMP_temperature;BMP_pressure;BME280_temperature;BME280_humidity;BME280_pressure;Samples;Min_cycle;Max_cycle;Signal;HPM_P1;HPM_P2
2021/01/31 00:00:01;;;;;;;16.63;9.10;;;1.40;99.90;;;;;;4981428;28;20113;-69
2021/01/31 00:02:27;;;;;;;17.00;9.10;;;1.50;99.90;;;;;;4978323;28;20057;-69
2021/01/31 00:04:54;;;;;;;17.23;9.47;;;1.50;99.90;;;;;;4978216;28;20125;-69
2021/01/31 00:07:20;;;;;;;16.90;9.40;;;1.50;99.90;;;;;;4972450;28;20058;-69
2021/01/31 00:09:49;;;;;;;16.87;8.93;;;1.40;99.90;;;;;;4976476;28;20116;-68
2021/01/31 00:12:17;;;;;;;19.20;9.30;;;1.30;99.90;;;;;;4979966;28;20090;-69
2021/01/31 00:14:43;;;;;;;17.40;8.97;;;1.40;99.90;;;;;;4974508;28;20536;-69
2021/01/31 00:17:10;;;;;;;18.40;9.77;;;1.30;99.90;;;;;;4974984;28;20062;-69
2021/01/31 00:19:36;;;;;;;17.67;9.40;;;1.30;99.90;;;;;;4983460;28;20504;-69
2021/01/31 00:22:03;;;;;;;19.10;10.03;;;1.30;99.90;;;;;;4975651;28;20058;-69
2021/01/31 00:24:30;;;;;;;17.53;9.60;;;1.30;99.90;;;;;;4985171;28;20062;-68
2021/01/31 00:26:57;;;;;;;16.07;8.80;;;1.30;99.90;;;;;;4987203;28;20054;-69
2021/01/31 00:29:25;;;;;;;17.07;9.17;;;1.30;99.90;;;;;;4987048;28;20050;-69
2021/01/31 00:31:52;;;;;;;22.50;10.27;;;1.30;99.90;;;;;;4987648;28;20398;-69
2021/01/31 00:34:20;;;;;;;21.53;11.30;;;1.30;99.90;;;;;;4982981;28;20399;-69
2021/01/31 00:36:47;;;;;;;18.43;9.77;;;1.40;99.90;;;;;;4978998;28;20125;-69
2021/01/31 00:39:14;;;;;;;19.00;9.83;;;1.40;99.90;;;;;;4985422;28;20062;-69
2021/01/31 00:41:42;;;;;;;19.90;10.30;;;1.40;99.90;;;;;;4981727;28;20104;-69
2021/01/31 00:44:08;;;;;;;19.63;9.70;;;1.40;99.90;;;;;;4979795;28;20105;-71
2021/01/31 00:46:38;;;;;;;16.97;9.67;;;1.40;99.90;;;;;;4968079;28;20445;-70
2021/01/31 00:49:05;;;;;;;17.80;9.50;;;1.30;99.90;;;;;;4965252;28;20165;-69
2021/01/31 00:51:32;;;;;;;19.13;9.80;;;1.40;99.90;;;;;;4972289;28;20047;-69
2021/01/31 00:53:58;;;;;;;17.93;9.63;;;1.40;99.90;;;;;;4976769;28;20563;-69
2021/01/31 00:56:25;;;;;;;17.70;8.70;;;1.40;99.90;;;;;;4974318;28;20050;-69
2021/01/31 00:58:52;;;;;;;16.30;9.10;;;1.40;99.90;;;;;;4971580;28;20050;-69
2021/01/31 01:01:20;;;;;;;18.53;9.90;;;1.40;99.90;;;;;;4972212;28;20096;-69
2021/01/31 01:03:47;;;;;;;17.10;9.23;;;1.30;99.90;;;;;;4973305;28;20501;-69
2021/01/31 01:06:14;;;;;;;16.90;9.27;;;1.20;99.90;;;;;;4979307;28;20055;-69
2021/01/31 01:08:41;;;;;;;17.93;8.90;;;1.10;99.90;;;;;;4974343;28;20042;-68
2021/01/31 01:11:08;;;;;;;18.57;9.63;;;1.10;99.90;;;;;;4982442;28;20054;-67
2021/01/31 01:13:35;;;;;;;18.23;9.50;;;1.10;99.90;;;;;;4978272;28;20042;-67
2021/01/31 01:16:05;;;;;;;18.93;9.97;;;1.10;99.90;;;;;;4976930;28;20501;-67
2021/01/31 01:18:32;;;;;;;22.03;9.90;;;1.10;99.90;;;;;;4979670;28;20051;-67
2021/01/31 01:20:59;;;;;;;17.77;9.57;;;1.10;99.90;;;;;;4976743;28;20051;-67
2021/01/31 01:23:26;;;;;;;17.93;9.20;;;1.00;99.90;;;;;;4968202;28;20062;-67
2021/01/31 01:25:52;;;;;;;18.73;9.03;;;1.00;99.90;;;;;;4968557;28;20054;-68
2021/01/31 01:28:19;;;;;;;16.83;9.53;;;1.00;99.90;;;;;;4979856;28;20051;-68
2021/01/31 01:30:49;;;;;;;19.43;9.70;;;1.10;99.90;;;;;;4980314;28;20062;-68
2021/01/31 01:33:15;;;;;;;17.57;9.50;;;0.90;99.90;;;;;;4967261;28;20150;-67
2021/01/31 01:35:42;;;;;;;19.27;9.23;;;0.80;99.90;;;;;;4968897;28;20505;-67
2021/01/31 01:38:09;;;;;;;17.73;9.20;;;0.80;99.90;;;;;;4980175;28;20053;-67
2021/01/31 01:40:39;;;;;;;17.37;8.87;;;0.80;99.90;;;;;;4965515;28;20050;-67
2021/01/31 01:43:07;;;;;;;20.07;10.17;;;0.70;99.90;;;;;;4971562;28;20054;-67
2021/01/31 01:45:34;;;;;;;20.20;9.90;;;0.60;99.90;;;;;;4969158;28;20615;-67
2021/01/31 01:48:05;;;;;;;19.07;9.27;;;0.80;99.90;;;;;;4971874;28;20137;-67
2021/01/31 01:50:37;;;;;;;16.93;9.13;;;0.70;99.90;;;;;;4978556;28;20086;-67
2021/01/31 01:53:06;;;;;;;20.37;9.40;;;0.80;99.90;;;;;;4973321;28;20054;-67
2021/01/31 01:55:38;;;;;;;23.03;10.57;;;0.80;99.90;;;;;;4976204;28;20094;-67
2021/01/31 01:58:12;;;;;;;19.23;9.27;;;0.80;99.90;;;;;;4975852;28;20047;-67
2021/01/31 02:00:41;;;;;;;18.00;9.07;;;0.80;99.90;;;;;;4972932;28;20050;-68
2021/01/31 02:03:14;;;;;;;18.13;8.90;;;0.80;99.90;;;;;;4966191;28;20054;-67
2021/01/31 02:05:46;;;;;;;16.87;9.23;;;0.70;99.90;;;;;;4975208;28;20460;-67
2021/01/31 02:08:13;;;;;;;20.63;9.83;;;0.70;99.90;;;;;;4973795;28;20524;-67
2021/01/31 02:10:40;;;;;;;19.20;9.50;;;0.70;99.90;;;;;;4975427;28;20047;-67
2021/01/31 02:13:07;;;;;;;17.67;9.33;;;0.60;99.90;;;;;;4973869;28;20047;-67
2021/01/31 02:15:33;;;;;;;17.23;9.27;;;0.70;99.90;;;;;;4975899;28;20386;-67
2021/01/31 02:18:14;;;;;;;18.83;9.70;;;0.70;99.90;;;;;;4972981;28;20050;-67
2021/01/31 02:21:27;;;;;;;19.90;9.60;;;0.60;99.90;;;;;;4968933;28;20050;-67
2021/01/31 02:24:29;;;;;;;17.97;8.83;;;0.70;99.90;;;;;;4972008;28;20051;-67
2021/01/31 02:27:32;;;;;;;18.33;9.20;;;0.70;99.90;;;;;;4969807;28;20047;-67
2021/01/31 02:30:36;;;;;;;17.07;9.27;;;0.80;99.90;;;;;;4967387;28;20185;-67
2021/01/31 02:33:32;;;;;;;19.77;9.97;;;0.70;99.90;;;;;;4974780;28;20501;-67
2021/01/31 02:36:05;;;;;;;19.07;9.57;;;0.70;99.90;;;;;;4969980;28;20050;-67
2021/01/31 02:38:36;;;;;;;19.53;10.00;;;0.70;99.90;;;;;;4979811;28;20051;-67
2021/01/31 02:41:08;;;;;;;19.67;9.70;;;0.70;99.90;;;;;;4979759;28;20050;-67
2021/01/31 02:43:40;;;;;;;19.03;9.80;;;0.70;99.90;;;;;;4975739;28;20046;-67
2021/01/31 02:46:14;;;;;;;16.73;8.53;;;0.70;99.90;;;;;;4982612;28;20051;-67
2021/01/31 02:48:47;;;;;;;19.23;10.00;;;0.70;99.90;;;;;;4968327;28;20105;-67
2021/01/31 02:51:19;;;;;;;20.03;10.00;;;0.80;99.90;;;;;;4976790;28;20058;-67
2021/01/31 02:53:55;;;;;;;20.57;9.77;;;1.00;99.90;;;;;;4976639;28;20054;-67
2021/01/31 02:56:28;;;;;;;19.27;9.50;;;1.00;99.90;;;;;;4968309;28;20113;-67
2021/01/31 02:59:01;;;;;;;20.33;8.87;;;0.80;99.90;;;;;;4968453;28;20079;-67
2021/01/31 03:01:34;;;;;;;17.97;8.93;;;0.90;99.90;;;;;;4967818;28;20054;-67
2021/01/31 03:04:05;;;;;;;20.03;9.10;;;0.90;99.90;;;;;;4967127;28;20057;-67
2021/01/31 03:06:36;;;;;;;20.33;9.40;;;0.90;99.90;;;;;;4968781;28;20054;-67
2021/01/31 03:09:22;;;;;;;21.37;9.70;;;0.80;99.90;;;;;;4979583;28;20046;-67
2021/01/31 03:11:59;;;;;;;20.37;9.07;;;0.80;99.90;;;;;;4972686;28;20054;-67
2021/01/31 03:14:29;;;;;;;21.27;10.20;;;0.80;99.90;;;;;;4993251;28;20054;-67
2021/01/31 03:17:02;;;;;;;18.83;9.03;;;0.80;99.90;;;;;;4992626;28;20057;-67
2021/01/31 03:19:36;;;;;;;18.67;9.40;;;0.80;99.90;;;;;;4982890;28;20053;-67
2021/01/31 03:22:08;;;;;;;18.07;9.20;;;0.90;99.90;;;;;;4977707;28;20058;-67
2021/01/31 03:24:38;;;;;;;19.13;9.17;;;0.90;99.90;;;;;;4977098;28;20493;-67
2021/01/31 03:27:09;;;;;;;17.87;8.90;;;0.90;99.90;;;;;;4977595;28;20057;-68
2021/01/31 03:29:36;;;;;;;19.53;9.43;;;0.80;99.90;;;;;;4967617;28;20070;-67
2021/01/31 03:32:08;;;;;;;19.30;9.87;;;0.90;99.90;;;;;;4974293;28;20541;-69
2021/01/31 03:34:42;;;;;;;17.30;9.13;;;1.00;99.90;;;;;;4975107;28;20082;-67
2021/01/31 03:37:10;;;;;;;19.17;9.37;;;0.90;99.90;;;;;;4976356;28;20042;-67
2021/01/31 03:39:42;;;;;;;18.77;9.93;;;0.90;99.90;;;;;;4970382;28;20527;-68
2021/01/31 03:42:08;;;;;;;19.93;9.97;;;0.80;99.90;;;;;;4979781;28;20050;-67
2021/01/31 03:44:42;;;;;;;21.80;10.87;;;0.80;99.90;;;;;;4966000;28;20050;-67
2021/01/31 03:47:14;;;;;;;20.93;10.33;;;0.90;99.90;;;;;;4977156;28;20073;-67
2021/01/31 03:49:48;;;;;;;19.10;9.43;;;0.80;99.90;;;;;;4967231;28;20047;-67
2021/01/31 03:52:15;;;;;;;20.63;9.93;;;0.90;99.90;;;;;;4971313;28;20401;-67
2021/01/31 03:54:41;;;;;;;18.10;8.60;;;0.70;99.90;;;;;;4975471;28;20046;-67
2021/01/31 03:57:13;;;;;;;18.00;8.60;;;0.80;99.90;;;;;;4975498;28;20064;-67
2021/01/31 03:59:43;;;;;;;19.27;9.40;;;0.80;99.90;;;;;;4966429;28;20054;-67
2021/01/31 04:02:12;;;;;;;18.70;9.10;;;0.90;99.90;;;;;;4974557;28;20066;-67
2021/01/31 04:04:45;;;;;;;21.70;10.30;;;0.90;99.90;;;;;;4975965;28;20054;-67
2021/01/31 04:07:17;;;;;;;20.60;9.40;;;0.80;99.90;;;;;;4977215;28;20050;-67
2021/01/31 04:09:44;;;;;;;20.37;9.63;;;0.90;99.90;;;;;;4978717;28;20046;-67
2021/01/31 04:12:14;;;;;;;18.67;9.43;;;0.80;99.90;;;;;;4979183;28;20084;-67
2021/01/31 04:14:48;;;;;;;18.53;8.70;;;1.10;99.90;;;;;;4975054;28;20042;-67
2021/01/31 04:17:15;;;;;;;21.63;10.10;;;0.90;99.90;;;;;;4977062;28;20444;-66
2021/01/31 04:19:42;;;;;;;19.23;8.57;;;0.80;99.90;;;;;;4978550;28;20061;-66
2021/01/31 04:22:09;;;;;;;21.17;9.77;;;0.80;99.90;;;;;;4976113;28;20102;-67
2021/01/31 04:24:35;;;;;;;20.57;8.93;;;0.90;99.90;;;;;;4973864;28;20051;-67
2021/01/31 04:27:02;;;;;;;20.33;9.70;;;0.80;99.90;;;;;;4975976;28;20046;-67
2021/01/31 04:29:28;;;;;;;17.73;8.57;;;0.80;99.90;;;;;;4976437;28;20058;-67
2021/01/31 04:31:55;;;;;;;17.97;10.00;;;0.60;99.90;;;;;;4974441;28;20055;-67
2021/01/31 04:34:21;;;;;;;20.83;9.00;;;0.60;99.90;;;;;;4974699;28;20051;-67
2021/01/31 04:36:49;;;;;;;29.90;14.63;;;0.70;99.90;;;;;;4975241;28;20050;-67
2021/01/31 04:39:15;;;;;;;21.17;10.23;;;0.90;99.90;;;;;;4973363;28;20082;-67
2021/01/31 04:41:43;;;;;;;19.33;9.53;;;0.90;99.90;;;;;;4975493;28;20053;-67
2021/01/31 04:44:13;;;;;;;20.03;9.27;;;0.90;99.90;;;;;;4975004;28;20054;-67
2021/01/31 04:46:44;;;;;;;33.87;11.87;;;0.90;99.90;;;;;;4966350;28;20117;-66
2021/01/31 04:49:34;;;;;;;46.70;12.03;;;0.80;99.90;;;;;;4978089;28;20112;-67
2021/01/31 04:52:29;;;;;;;34.73;11.33;;;0.90;99.90;;;;;;4962652;28;20054;-66
2021/01/31 04:55:15;;;;;;;26.60;10.87;;;0.90;99.90;;;;;;4956294;28;20100;-66
2021/01/31 04:57:44;;;;;;;24.40;10.23;;;0.90;99.90;;;;;;4965327;28;20054;-67
2021/01/31 05:00:22;;;;;;;22.57;9.77;;;0.70;99.90;;;;;;4974164;28;20097;-67
2021/01/31 05:02:52;;;;;;;20.67;9.30;;;0.60;99.90;;;;;;4973658;28;20054;-67
2021/01/31 05:05:21;;;;;;;20.40;8.27;;;0.60;99.90;;;;;;4975421;28;20054;-67
2021/01/31 05:07:53;;;;;;;19.80;9.43;;;0.60;99.90;;;;;;4975939;28;20047;-67
2021/01/31 05:10:20;;;;;;;18.20;8.57;;;0.80;99.90;;;;;;4968174;28;20460;-67
2021/01/31 05:12:55;;;;;;;21.00;9.17;;;0.70;99.90;;;;;;4973967;28;20054;-67
2021/01/31 05:15:25;;;;;;;19.40;9.40;;;0.70;99.90;;;;;;4965643;28;20058;-67
2021/01/31 05:17:55;;;;;;;18.23;9.57;;;0.80;99.90;;;;;;4977705;28;20216;-67
2021/01/31 05:20:25;;;;;;;18.43;9.20;;;0.70;99.90;;;;;;4976314;28;20055;-67
2021/01/31 05:22:55;;;;;;;17.97;9.27;;;0.70;99.90;;;;;;4975075;28;20058;-67
2021/01/31 05:25:24;;;;;;;17.50;9.03;;;0.70;99.90;;;;;;4974629;28;20417;-66
2021/01/31 05:27:56;;;;;;;20.80;9.50;;;0.50;99.90;;;;;;4974462;28;20058;-67
2021/01/31 05:30:24;;;;;;;21.00;9.40;;;0.70;99.90;;;;;;4975323;28;20086;-67
2021/01/31 05:33:03;;;;;;;20.43;9.83;;;0.70;99.90;;;;;;4975133;28;20405;-67
2021/01/31 05:35:31;;;;;;;19.53;9.43;;;0.70;99.90;;;;;;4975543;28;20051;-67
2021/01/31 05:37:59;;;;;;;20.93;9.70;;;0.70;99.90;;;;;;4965850;28;20062;-67
2021/01/31 05:40:31;;;;;;;23.87;10.23;;;0.60;99.90;;;;;;4972425;28;20047;-67
2021/01/31 05:42:59;;;;;;;23.37;10.60;;;0.70;99.90;;;;;;4977151;28;20125;-67
2021/01/31 05:45:37;;;;;;;19.80;9.83;;;0.70;99.90;;;;;;4975163;28;20058;-67
2021/01/31 05:48:19;;;;;;;19.10;9.23;;;0.70;99.90;;;;;;4975347;28;20047;-67
2021/01/31 05:50:46;;;;;;;18.90;8.70;;;0.50;99.90;;;;;;4968037;28;20465;-67
2021/01/31 05:53:30;;;;;;;19.83;9.37;;;0.50;99.90;;;;;;4967597;28;20066;-67
2021/01/31 05:56:21;;;;;;;20.47;9.60;;;0.50;99.90;;;;;;4970069;28;20508;-67
2021/01/31 05:58:48;;;;;;;21.70;10.00;;;0.50;99.90;;;;;;4984841;28;20133;-66
2021/01/31 06:01:15;;;;;;;21.97;10.27;;;0.60;99.90;;;;;;4987626;28;20053;-67
2021/01/31 06:03:45;;;;;;;19.80;10.00;;;0.50;99.90;;;;;;4987378;28;20104;-66
2021/01/31 06:06:25;;;;;;;21.27;9.67;;;0.60;99.90;;;;;;4983149;28;20054;-66
2021/01/31 06:08:55;;;;;;;21.67;10.00;;;0.50;99.90;;;;;;4968678;28;20093;-66
2021/01/31 06:11:25;;;;;;;21.70;9.17;;;0.50;99.90;;;;;;4985429;28;20547;-67
2021/01/31 06:14:03;;;;;;;21.37;9.93;;;0.50;99.90;;;;;;4986343;28;20054;-66
2021/01/31 06:16:30;;;;;;;22.20;9.97;;;0.60;99.90;;;;;;4985970;28;20046;-67
2021/01/31 06:19:00;;;;;;;21.40;9.57;;;0.70;99.90;;;;;;4988428;28;20132;-66
2021/01/31 06:21:38;;;;;;;19.93;9.97;;;0.70;99.90;;;;;;4985681;28;20065;-66
2021/01/31 06:24:20;;;;;;;21.80;9.47;;;0.60;99.90;;;;;;4984049;28;20416;-66
2021/01/31 06:26:47;;;;;;;19.57;9.20;;;0.60;99.90;;;;;;4986080;28;20046;-66
2021/01/31 06:29:20;;;;;;;21.17;9.20;;;0.60;99.90;;;;;;4988388;28;20089;-66
2021/01/31 06:31:53;;;;;;;22.73;10.97;;;0.60;99.90;;;;;;4988208;28;20416;-66
2021/01/31 06:34:20;;;;;;;22.03;10.60;;;0.70;99.90;;;;;;4987251;28;20054;-67
2021/01/31 06:36:59;;;;;;;20.20;9.83;;;0.60;99.90;;;;;;4987911;28;20508;-67
2021/01/31 06:39:48;;;;;;;22.70;10.00;;;0.60;99.90;;;;;;4985175;28;20059;-67
2021/01/31 06:42:30;;;;;;;19.90;10.07;;;0.60;99.90;;;;;;5002130;28;20839;-67
2021/01/31 06:45:17;;;;;;;22.97;10.60;;;0.60;99.90;;;;;;4988395;28;20058;-66
2021/01/31 06:48:28;;;;;;;21.53;9.57;;;0.70;99.90;;;;;;4988269;28;20054;-66
2021/01/31 06:51:55;;;;;;;20.60;10.30;;;0.60;99.90;;;;;;4990757;28;20089;-67
2021/01/31 06:55:06;;;;;;;23.90;10.40;;;0.80;99.90;;;;;;4946135;29;20457;-67
2021/01/31 06:58:02;;;;;;;22.93;10.63;;;0.70;99.90;;;;;;4948492;29;20056;-67
2021/01/31 07:00:52;;;;;;;19.70;9.70;;;0.70;99.90;;;;;;4988643;28;20053;-67
2021/01/31 07:03:52;;;;;;;18.93;9.40;;;0.80;99.90;;;;;;4987454;28;20050;-67
2021/01/31 07:06:34;;;;;;;19.53;9.60;;;0.70;99.90;;;;;;4988544;28;20050;-67
2021/01/31 07:09:18;;;;;;;21.37;9.97;;;0.60;99.90;;;;;;4988464;28;20057;-67
2021/01/31 07:11:49;;;;;;;23.00;10.60;;;0.80;99.90;;;;;;4983225;28;20046;-68
2021/01/31 07:14:40;;;;;;;19.03;8.67;;;0.80;99.90;;;;;;4988867;28;20058;-67
2021/01/31 07:17:23;;;;;;;20.07;9.10;;;0.70;99.90;;;;;;5007932;28;20081;-67
2021/01/31 07:19:56;;;;;;;18.87;8.80;;;0.70;99.90;;;;;;5010200;28;20045;-67
2021/01/31 07:22:32;;;;;;;23.50;10.07;;;0.60;99.90;;;;;;5012368;28;20100;-67
2021/01/31 07:25:03;;;;;;;20.73;9.30;;;0.60;99.90;;;;;;5013423;28;20057;-67
2021/01/31 07:27:35;;;;;;;21.00;9.57;;;0.60;99.90;;;;;;5012271;28;20049;-67
2021/01/31 07:30:10;;;;;;;19.80;9.10;;;0.60;99.90;;;;;;5011823;28;20397;-67
2021/01/31 07:32:50;;;;;;;23.50;9.93;;;0.50;99.90;;;;;;5005569;28;20065;-67
2021/01/31 07:35:20;;;;;;;23.27;11.00;;;0.50;99.90;;;;;;5006237;28;20058;-67
2021/01/31 07:37:51;;;;;;;24.07;10.27;;;0.50;99.90;;;;;;5006791;28;20054;-67
2021/01/31 07:40:21;;;;;;;21.33;10.17;;;0.60;99.90;;;;;;4999060;28;20049;-67
2021/01/31 07:42:54;;;;;;;23.60;9.87;;;0.60;99.90;;;;;;4997536;28;20042;-67
2021/01/31 07:45:24;;;;;;;19.50;9.23;;;0.60;99.90;;;;;;4987298;28;20112;-67
2021/01/31 07:48:11;;;;;;;21.70;9.57;;;0.70;99.90;;;;;;4986875;28;20058;-67
2021/01/31 07:50:40;;;;;;;19.80;10.13;;;0.60;99.90;;;;;;4986549;28;20051;-67
2021/01/31 07:53:08;;;;;;;20.53;10.10;;;0.70;99.90;;;;;;4985561;28;20046;-67
2021/01/31 07:55:40;;;;;;;21.03;10.33;;;0.80;99.90;;;;;;4986562;28;20081;-67
2021/01/31 07:58:32;;;;;;;21.93;10.07;;;0.70;99.90;;;;;;4986838;28;20054;-67
2021/01/31 08:00:59;;;;;;;18.30;9.50;;;0.80;99.90;;;;;;4973571;28;20272;-67
2021/01/31 08:03:35;;;;;;;21.37;9.20;;;0.80;99.90;;;;;;4981866;28;20054;-67
2021/01/31 08:06:06;;;;;;;23.80;10.55;;;0.80;99.90;;;;;;4982109;28;20113;-67
2021/01/31 08:08:48;;;;;;;19.80;10.23;;;0.80;99.90;;;;;;4986168;28;20057;-67
2021/01/31 08:11:50;;;;;;;21.73;10.27;;;0.90;99.90;;;;;;4993944;28;20136;-67
2021/01/31 08:14:49;;;;;;;23.70;11.43;;;0.90;99.90;;;;;;4985451;28;20054;-66
2021/01/31 08:17:37;;;;;;;23.57;11.13;;;1.00;99.90;;;;;;4986255;28;20050;-67
2021/01/31 08:20:19;;;;;;;21.17;10.20;;;1.10;99.90;;;;;;4986530;28;20055;-71
2021/01/31 08:22:45;;;;;;;24.23;10.97;;;1.30;99.90;;;;;;4985112;28;20413;-67
2021/01/31 08:25:24;;;;;;;23.33;11.17;;;1.30;99.90;;;;;;4986036;28;20497;-67
2021/01/31 08:27:57;;;;;;;20.03;9.27;;;1.10;99.90;;;;;;4986793;28;20054;-67
2021/01/31 08:30:31;;;;;;;21.77;10.63;;;1.20;99.90;;;;;;4986183;28;20088;-67
2021/01/31 08:33:26;;;;;;;24.10;11.53;;;1.10;99.90;;;;;;4985358;28;20053;-67
2021/01/31 08:36:01;;;;;;;21.90;11.03;;;1.20;99.90;;;;;;4980733;28;20452;-67
2021/01/31 08:38:43;;;;;;;24.17;11.00;;;1.30;99.90;;;;;;4986105;28;20058;-67
2021/01/31 08:41:32;;;;;;;22.63;10.60;;;1.40;99.90;;;;;;4985784;28;20445;-67
2021/01/31 08:44:20;;;;;;;23.53;10.17;;;1.70;99.90;;;;;;5000808;28;20053;-67
2021/01/31 08:46:57;;;;;;;24.77;11.60;;;1.70;99.90;;;;;;5005874;28;20057;-67
2021/01/31 08:49:25;;;;;;;19.33;9.83;;;1.90;99.90;;;;;;5005559;28;20049;-67
2021/01/31 08:51:57;;;;;;;23.43;10.37;;;2.00;99.90;;;;;;5005839;28;20061;-67
2021/01/31 08:54:28;;;;;;;22.87;11.20;;;2.10;99.90;;;;;;5004189;28;20041;-67
2021/01/31 08:56:56;;;;;;;23.67;11.60;;;2.30;99.90;;;;;;5006110;28;20045;-67
2021/01/31 08:59:27;;;;;;;24.60;11.73;;;2.50;99.90;;;;;;5005493;28;20046;-67
2021/01/31 09:02:05;;;;;;;20.40;10.37;;;2.60;99.90;;;;;;5005801;28;20127;-67
2021/01/31 09:04:33;;;;;;;18.73;9.80;;;2.70;99.90;;;;;;5003706;28;20054;-67
2021/01/31 09:07:02;;;;;;;19.17;9.30;;;3.20;99.90;;;;;;5005241;28;20054;-68
2021/01/31 09:09:32;;;;;;;23.23;11.57;;;3.60;99.90;;;;;;5005434;28;20046;-67
2021/01/31 09:12:01;;;;;;;24.40;10.57;;;3.70;99.90;;;;;;4981215;28;20046;-67
2021/01/31 09:14:33;;;;;;;20.13;10.18;;;3.70;99.90;;;;;;4984819;28;20085;-68
2021/01/31 09:17:04;;;;;;;16.08;8.85;;;4.90;99.90;;;;;;4985617;28;20054;-67
2021/01/31 09:19:30;;;;;;;18.40;9.70;;;5.80;99.90;;;;;;4984631;28;20047;-67
2021/01/31 09:22:04;;;;;;;18.33;10.40;;;6.40;99.90;;;;;;4985889;28;20058;-67
2021/01/31 09:24:34;;;;;;;16.98;9.35;;;6.20;99.90;;;;;;4985238;28;20055;-67
2021/01/31 09:27:01;;;;;;;20.13;10.73;;;5.40;99.90;;;;;;4998807;28;20381;-67
2021/01/31 09:29:31;;;;;;;21.60;11.45;;;5.10;99.90;;;;;;5002907;28;20127;-67
2021/01/31 09:32:02;;;;;;;18.70;9.75;;;5.20;99.90;;;;;;5005645;28;20050;-68
2021/01/31 09:34:29;;;;;;;16.95;9.80;;;6.10;99.90;;;;;;5006039;28;20079;-68
2021/01/31 09:37:09;;;;;;;19.10;10.88;;;7.50;99.90;;;;;;5009073;28;20050;-68
2021/01/31 09:39:38;;;;;;;18.20;10.38;;;8.60;99.90;;;;;;5008418;28;20401;-68
2021/01/31 09:42:06;;;;;;;16.55;10.52;;;9.80;99.90;;;;;;4988229;28;20072;-68
2021/01/31 09:44:36;;;;;;;18.48;10.18;;;10.60;99.90;;;;;;4988565;28;20062;-68
2021/01/31 09:47:04;;;;;;;17.92;10.95;;;10.60;99.90;;;;;;4989418;28;20051;-68
2021/01/31 09:49:31;;;;;;;18.38;11.32;;;9.80;99.90;;;;;;4989446;28;20830;-68
2021/01/31 09:52:06;;;;;;;16.75;9.82;;;9.10;99.90;;;;;;4985851;28;20046;-68
2021/01/31 09:54:39;;;;;;;18.63;10.63;;;9.10;99.90;;;;;;4981015;28;20422;-68
2021/01/31 09:57:15;;;;;;;19.55;11.95;;;8.70;99.90;;;;;;4978586;28;20537;-68
2021/01/31 09:59:43;;;;;;;18.47;10.67;;;8.00;99.90;;;;;;4968966;28;20425;-68
2021/01/31 10:02:12;;;;;;;18.58;10.98;;;8.00;99.90;;;;;;4974775;28;20139;-68
2021/01/31 10:04:41;;;;;;;19.13;10.48;;;9.10;99.90;;;;;;4977835;28;20050;-69
2021/01/31 10:07:15;;;;;;;17.60;10.85;;;10.00;99.90;;;;;;4976301;28;20065;-70
2021/01/31 10:09:46;;;;;;;17.25;10.85;;;11.00;99.90;;;;;;4969944;28;20046;-68
2021/01/31 10:12:24;;;;;;;17.92;10.68;;;11.30;99.90;;;;;;4984204;28;20050;-69
2021/01/31 10:14:52;;;;;;;16.10;9.90;;;12.40;99.90;;;;;;4980249;28;20098;-69
2021/01/31 10:17:21;;;;;;;16.77;10.98;;;13.60;99.40;;;;;;4981539;28;20057;-69
2021/01/31 10:20:08;;;;;;;16.48;10.52;;;14.30;97.40;;;;;;4980591;28;20050;-69
2021/01/31 10:22:35;;;;;;;16.35;10.80;;;14.40;92.90;;;;;;4981556;28;20054;-70
2021/01/31 10:25:02;;;;;;;16.33;10.57;;;16.30;88.20;;;;;;4981694;28;20096;-67
2021/01/31 10:27:33;;;;;;;13.35;9.57;;;17.10;80.50;;;;;;4978754;28;20043;-67
2021/01/31 10:30:20;;;;;;;15.13;10.05;;;17.10;72.00;;;;;;4979432;28;20571;-67
2021/01/31 10:32:47;;;;;;;14.90;11.00;;;17.40;71.50;;;;;;4969811;28;20121;-67
2021/01/31 10:35:32;;;;;;;15.75;11.02;;;16.60;67.40;;;;;;4969302;28;20109;-68
2021/01/31 10:38:01;;;;;;;14.85;10.65;;;17.10;67.60;;;;;;4984253;28;20050;-68
2021/01/31 10:40:27;;;;;;;16.15;10.38;;;17.00;66.80;;;;;;4989536;28;20102;-67
2021/01/31 10:42:54;;;;;;;16.30;11.13;;;16.40;66.00;;;;;;4988288;28;20412;-68
2021/01/31 10:45:24;;;;;;;14.10;9.95;;;16.30;69.40;;;;;;4992803;28;20050;-67
2021/01/31 10:47:51;;;;;;;13.65;10.18;;;16.60;66.30;;;;;;4984158;28;20061;-68
2021/01/31 10:50:19;;;;;;;14.15;10.05;;;16.20;71.60;;;;;;4975371;28;20050;-68
2021/01/31 10:52:48;;;;;;;14.52;10.00;;;16.40;66.50;;;;;;4971547;28;20054;-68
2021/01/31 10:55:15;;;;;;;13.98;9.82;;;16.20;67.70;;;;;;4971034;28;20070;-68
2021/01/31 10:57:42;;;;;;;14.38;9.57;;;15.80;68.60;;;;;;4967840;28;20113;-68
2021/01/31 11:00:11;;;;;;;14.65;10.43;;;15.20;71.80;;;;;;4967444;28;20505;-68
2021/01/31 11:02:38;;;;;;;16.63;10.48;;;14.70;74.00;;;;;;4967050;28;20046;-68
2021/01/31 11:05:06;;;;;;;13.70;9.25;;;14.80;71.80;;;;;;4970601;28;20466;-71
2021/01/31 11:07:33;;;;;;;14.35;9.80;;;14.70;71.00;;;;;;4967027;28;20053;-70
2021/01/31 11:10:00;;;;;;;15.00;9.65;;;14.30;71.30;;;;;;4971067;28;20050;-71
2021/01/31 11:12:27;;;;;;;17.15;9.13;;;14.90;72.20;;;;;;4973640;28;20046;-70
2021/01/31 11:14:55;;;;;;;36.60;15.30;;;14.50;71.40;;;;;;4972920;28;20481;-69
2021/01/31 11:17:23;;;;;;;14.63;9.70;;;14.10;71.70;;;;;;4968181;28;20410;-69
2021/01/31 11:19:50;;;;;;;14.60;9.05;;;13.00;72.80;;;;;;4980955;28;20050;-70
2021/01/31 11:22:16;;;;;;;14.82;9.30;;;13.20;76.60;;;;;;4975370;28;20116;-69
2021/01/31 11:24:45;;;;;;;14.40;9.27;;;13.60;76.10;;;;;;4968198;28;20061;-70
2021/01/31 11:27:11;;;;;;;15.85;9.98;;;14.50;76.50;;;;;;4966648;28;20050;-71
2021/01/31 11:29:49;;;;;;;15.40;10.45;;;15.00;78.10;;;;;;4967489;28;20571;-69
2021/01/31 11:32:15;;;;;;;19.25;12.10;;;14.60;76.70;;;;;;4973206;28;20061;-70
2021/01/31 11:34:42;;;;;;;17.45;11.32;;;15.80;78.50;;;;;;4970971;28;20086;-69
2021/01/31 11:37:10;;;;;;;19.95;11.52;;;16.00;70.90;;;;;;4980630;28;20124;-69
2021/01/31 11:39:38;;;;;;;16.75;11.05;;;14.50;72.60;;;;;;4979832;28;20086;-70
2021/01/31 11:42:05;;;;;;;18.38;11.43;;;13.70;76.70;;;;;;4969723;28;20424;-69
2021/01/31 11:44:33;;;;;;;17.25;11.00;;;13.00;80.10;;;;;;4972313;28;20055;-69
2021/01/31 11:47:00;;;;;;;17.67;10.85;;;13.10;81.30;;;;;;4980910;28;20047;-69
2021/01/31 11:49:31;;;;;;;18.63;11.00;;;12.40;82.40;;;;;;4980060;28;20042;-73
2021/01/31 11:52:00;;;;;;;17.25;10.82;;;11.50;85.50;;;;;;4976254;28;20509;-70
2021/01/31 11:54:27;;;;;;;16.73;9.85;;;11.10;91.00;;;;;;4983542;28;20237;-69
2021/01/31 11:56:54;;;;;;;19.25;10.85;;;10.30;91.40;;;;;;4982425;28;20050;-69
2021/01/31 11:59:21;;;;;;;15.75;8.73;;;9.70;95.30;;;;;;4985450;28;20054;-69
2021/01/31 12:01:47;;;;;;;15.05;9.15;;;9.20;96.10;;;;;;4985223;28;20058;-69
2021/01/31 12:04:15;;;;;;;17.30;9.98;;;9.30;96.90;;;;;;4985842;28;20501;-69
2021/01/31 12:06:43;;;;;;;19.52;9.82;;;9.60;97.70;;;;;;4988611;28;20082;-69
2021/01/31 12:09:09;;;;;;;17.25;9.68;;;10.40;99.00;;;;;;4984936;28;20453;-69
2021/01/31 12:11:36;;;;;;;17.38;10.07;;;10.50;97.30;;;;;;4998934;28;20050;-67
2021/01/31 12:14:03;;;;;;;15.57;9.63;;;10.20;99.50;;;;;;4986284;28;20065;-69
2021/01/31 12:16:30;;;;;;;15.65;9.32;;;11.60;95.70;;;;;;4974280;28;20070;-70
2021/01/31 12:18:58;;;;;;;15.90;9.32;;;12.50;95.70;;;;;;4977092;28;20442;-69
2021/01/31 12:21:26;;;;;;;18.25;9.57;;;12.30;92.10;;;;;;4987404;28;20060;-69
2021/01/31 12:23:55;;;;;;;17.15;9.60;;;11.20;94.50;;;;;;4977952;28;20484;-69
2021/01/31 12:26:22;;;;;;;17.25;9.15;;;10.30;97.50;;;;;;4984674;28;20048;-70
2021/01/31 12:28:50;;;;;;;16.63;9.00;;;9.40;99.70;;;;;;4973308;28;20054;-70
2021/01/31 12:31:17;;;;;;;16.67;9.02;;;9.60;99.90;;;;;;4968732;28;20058;-69
2021/01/31 12:33:43;;;;;;;15.90;9.10;;;10.00;99.90;;;;;;4983429;28;20064;-69
2021/01/31 12:36:16;;;;;;;15.40;8.48;;;10.10;99.90;;;;;;4972797;28;20691;-69
2021/01/31 12:38:44;;;;;;;16.38;8.55;;;9.60;99.90;;;;;;4971236;28;20105;-69
2021/01/31 12:41:11;;;;;;;17.23;9.48;;;8.80;99.90;;;;;;4982131;28;20369;-70
2021/01/31 12:43:38;;;;;;;15.25;8.82;;;7.90;99.90;;;;;;4976261;28;20104;-69
2021/01/31 12:46:05;;;;;;;16.50;8.82;;;7.30;99.90;;;;;;4983953;28;20042;-69
2021/01/31 12:48:32;;;;;;;16.83;9.10;;;7.10;99.90;;;;;;4969659;28;20050;-70
2021/01/31 12:50:59;;;;;;;17.50;9.65;;;7.40;99.90;;;;;;4978643;28;20069;-69
2021/01/31 12:53:25;;;;;;;16.35;8.98;;;8.00;99.90;;;;;;4965269;28;20055;-69
2021/01/31 12:55:58;;;;;;;18.27;9.25;;;8.40;99.90;;;;;;4965352;28;20524;-68
2021/01/31 12:58:25;;;;;;;19.08;9.50;;;8.10;99.90;;;;;;4982574;28;20492;-69
2021/01/31 13:00:51;;;;;;;19.33;9.20;;;8.60;99.90;;;;;;4985565;28;20053;-69
2021/01/31 13:03:20;;;;;;;16.23;8.77;;;9.50;99.90;;;;;;4984747;28;20516;-69
2021/01/31 13:05:50;;;;;;;17.80;9.40;;;10.90;99.90;;;;;;4971589;28;20480;-69